sensor_id;sensor_type;location;lat;lon;timestamp;pressure;altitude;pressure_sealevel;temperature;humidity
82458;BME280;72081;48.870;11.074;2023-09-19T00:00:42;96825.00;;;15.32;86.52
82458;BME280;72081;48.870;11.074;2023-09-19T00:03:09;96820.13;;;15.39;86.51
82458;BME280;72081;48.870;11.074;2023-09-19T00:05:37;96814.75;;;15.49;86.59
82458;BME280;72081;48.870;11.074;2023-09-19T00:08:09;96816.09;;;15.52;86.39
82458;BME280;72081;48.870;11.074;2023-09-19T00:10:34;96825.22;;;15.56;86.76
82458;BME280;72081;48.870;11.074;2023-09-19T00:13:02;96823.38;;;15.46;86.31
82458;BME280;72081;48.870;11.074;2023-09-19T00:15:40;96812.34;;;15.48;86.91
82458;BME280;72081;48.870;11.074;2023-09-19T00:18:07;96822.28;;;15.47;87.00
82458;BME280;72081;48.870;11.074;2023-09-19T00:20:35;96831.44;;;15.46;87.71
82458;BME280;72081;48.870;11.074;2023-09-19T00:23:01;96825.78;;;15.48;87.42
82458;BME280;72081;48.870;11.074;2023-09-19T00:25:35;96822.03;;;15.59;86.88
82458;BME280;72081;48.870;11.074;2023-09-19T00:28:04;96835.75;;;15.63;86.25
82458;BME280;72081;48.870;11.074;2023-09-19T00:30:30;96831.19;;;15.63;87.52
82458;BME280;72081;48.870;11.074;2023-09-19T00:32:55;96844.59;;;15.58;87.48
82458;BME280;72081;48.870;11.074;2023-09-19T00:35:22;96846.53;;;15.63;86.55
82458;BME280;72081;48.870;11.074;2023-09-19T00:37:51;96840.56;;;15.56;86.43
82458;BME280;72081;48.870;11.074;2023-09-19T00:40:17;96840.84;;;15.49;86.98
82458;BME280;72081;48.870;11.074;2023-09-19T00:42:43;96844.63;;;15.63;86.70
82458;BME280;72081;48.870;11.074;2023-09-19T00:45:10;96841.66;;;15.60;86.60
82458;BME280;72081;48.870;11.074;2023-09-19T00:47:36;96840.34;;;15.62;86.95
82458;BME280;72081;48.870;11.074;2023-09-19T00:50:04;96852.72;;;15.63;87.37
82458;BME280;72081;48.870;11.074;2023-09-19T00:52:32;96834.69;;;15.64;86.47
82458;BME280;72081;48.870;11.074;2023-09-19T00:54:58;96841.38;;;15.56;86.32
82458;BME280;72081;48.870;11.074;2023-09-19T00:57:25;96832.78;;;15.54;86.37
82458;BME280;72081;48.870;11.074;2023-09-19T00:59:52;96838.72;;;15.46;86.57
82458;BME280;72081;48.870;11.074;2023-09-19T01:02:20;96837.63;;;15.37;87.03
82458;BME280;72081;48.870;11.074;2023-09-19T01:04:47;96842.75;;;15.43;86.94
82458;BME280;72081;48.870;11.074;2023-09-19T01:07:12;96844.34;;;15.34;87.34
82458;BME280;72081;48.870;11.074;2023-09-19T01:09:40;96843.25;;;15.40;87.08
82458;BME280;72081;48.870;11.074;2023-09-19T01:12:06;96843.28;;;15.35;86.70
82458;BME280;72081;48.870;11.074;2023-09-19T01:14:54;96844.88;;;15.36;87.70
82458;BME280;72081;48.870;11.074;2023-09-19T01:17:30;96846.75;;;15.41;86.61
82458;BME280;72081;48.870;11.074;2023-09-19T01:25:47;96835.72;;;15.37;87.76
82458;BME280;72081;48.870;11.074;2023-09-19T01:31:09;96841.38;;;15.36;87.40
82458;BME280;72081;48.870;11.074;2023-09-19T01:33:54;96849.72;;;15.39;87.52
82458;BME280;72081;48.870;11.074;2023-09-19T01:36:22;96860.75;;;15.43;87.23
82458;BME280;72081;48.870;11.074;2023-09-19T01:38:48;96861.00;;;15.36;87.22
82458;BME280;72081;48.870;11.074;2023-09-19T01:41:17;96857.81;;;15.44;87.89
82458;BME280;72081;48.870;11.074;2023-09-19T01:43:48;96852.16;;;15.46;87.12
82458;BME280;72081;48.870;11.074;2023-09-19T01:46:21;96853.75;;;15.32;87.91
82458;BME280;72081;48.870;11.074;2023-09-19T01:51:37;96867.19;;;15.42;88.18
82458;BME280;72081;48.870;11.074;2023-09-19T01:54:10;96870.94;;;15.41;87.15
82458;BME280;72081;48.870;11.074;2023-09-19T01:56:42;96872.06;;;15.45;88.04
82458;BME280;72081;48.870;11.074;2023-09-19T01:59:11;96855.13;;;15.44;87.60
82458;BME280;72081;48.870;11.074;2023-09-19T02:01:39;96863.97;;;15.45;87.37
82458;BME280;72081;48.870;11.074;2023-09-19T02:04:05;96860.75;;;15.48;87.67
82458;BME280;72081;48.870;11.074;2023-09-19T02:06:30;96876.34;;;15.56;87.10
82458;BME280;72081;48.870;11.074;2023-09-19T02:08:56;96880.94;;;15.61;87.05
82458;BME280;72081;48.870;11.074;2023-09-19T02:11:21;96882.25;;;15.58;86.92
82458;BME280;72081;48.870;11.074;2023-09-19T02:13:47;96882.25;;;15.48;86.75
82458;BME280;72081;48.870;11.074;2023-09-19T02:16:12;96875.00;;;15.43;87.80
82458;BME280;72081;48.870;11.074;2023-09-19T02:18:38;96882.25;;;15.38;87.49
82458;BME280;72081;48.870;11.074;2023-09-19T02:21:04;96877.41;;;15.40;87.37
82458;BME280;72081;48.870;11.074;2023-09-19T02:23:31;96884.13;;;15.32;87.53
82458;BME280;72081;48.870;11.074;2023-09-19T02:25:58;96888.72;;;15.27;87.02
82458;BME280;72081;48.870;11.074;2023-09-19T02:28:28;96895.13;;;15.21;87.54
82458;BME280;72081;48.870;11.074;2023-09-19T02:30:55;96897.28;;;15.18;87.56
82458;BME280;72081;48.870;11.074;2023-09-19T02:34:50;96898.09;;;15.19;88.22
82458;BME280;72081;48.870;11.074;2023-09-19T02:37:17;96890.88;;;15.25;87.89
82458;BME280;72081;48.870;11.074;2023-09-19T02:39:44;96905.38;;;15.24;88.51
82458;BME280;72081;48.870;11.074;2023-09-19T02:42:09;96905.91;;;15.36;87.47
82458;BME280;72081;48.870;11.074;2023-09-19T02:44:34;96905.38;;;15.34;87.03
82458;BME280;72081;48.870;11.074;2023-09-19T02:47:00;96911.56;;;15.29;87.25
82458;BME280;72081;48.870;11.074;2023-09-19T02:49:25;96911.03;;;15.32;86.72
82458;BME280;72081;48.870;11.074;2023-09-19T02:51:51;96918.25;;;15.22;86.66
82458;BME280;72081;48.870;11.074;2023-09-19T02:54:16;96920.94;;;15.22;86.28
82458;BME280;72081;48.870;11.074;2023-09-19T02:56:42;96920.69;;;15.18;87.24
82458;BME280;72081;48.870;11.074;2023-09-19T02:59:07;96920.94;;;15.06;86.97
82458;BME280;72081;48.870;11.074;2023-09-19T03:01:35;96925.25;;;15.07;86.51
82458;BME280;72081;48.870;11.074;2023-09-19T03:04:01;96926.81;;;14.98;87.06
82458;BME280;72081;48.870;11.074;2023-09-19T03:06:27;96921.97;;;15.00;87.62
82458;BME280;72081;48.870;11.074;2023-09-19T03:08:52;96928.16;;;15.01;87.53
82458;BME280;72081;48.870;11.074;2023-09-19T03:11:18;96929.50;;;14.98;86.78
82458;BME280;72081;48.870;11.074;2023-09-19T03:13:54;96933.81;;;14.94;87.29
82458;BME280;72081;48.870;11.074;2023-09-19T03:16:19;96937.56;;;14.93;87.74
82458;BME280;72081;48.870;11.074;2023-09-19T03:18:47;96940.25;;;14.93;87.45
82458;BME280;72081;48.870;11.074;2023-09-19T03:21:14;96939.69;;;14.86;87.32
82458;BME280;72081;48.870;11.074;2023-09-19T03:23:39;96951.00;;;14.93;88.04
82458;BME280;72081;48.870;11.074;2023-09-19T03:26:05;96944.56;;;14.99;87.66
82458;BME280;72081;48.870;11.074;2023-09-19T03:28:33;96941.88;;;14.99;87.68
82458;BME280;72081;48.870;11.074;2023-09-19T03:31:03;96953.19;;;15.06;87.68
82458;BME280;72081;48.870;11.074;2023-09-19T03:33:28;96945.66;;;15.08;87.69
82458;BME280;72081;48.870;11.074;2023-09-19T03:35:56;96946.47;;;15.14;88.12
82458;BME280;72081;48.870;11.074;2023-09-19T03:38:23;96951.31;;;15.17;87.55
82458;BME280;72081;48.870;11.074;2023-09-19T03:40:48;96945.13;;;15.16;87.86
82458;BME280;72081;48.870;11.074;2023-09-19T03:43:14;96948.91;;;15.15;87.21
82458;BME280;72081;48.870;11.074;2023-09-19T03:45:40;96946.47;;;15.14;87.73
82458;BME280;72081;48.870;11.074;2023-09-19T03:48:11;96945.94;;;15.17;88.13
82458;BME280;72081;48.870;11.074;2023-09-19T03:50:37;96947.56;;;15.18;88.01
82458;BME280;72081;48.870;11.074;2023-09-19T03:53:02;96950.25;;;15.08;86.80
82458;BME280;72081;48.870;11.074;2023-09-19T03:55:28;96952.13;;;15.07;88.27
82458;BME280;72081;48.870;11.074;2023-09-19T03:57:54;96947.28;;;15.09;88.17
82458;BME280;72081;48.870;11.074;2023-09-19T04:00:20;96949.16;;;15.14;88.20
82458;BME280;72081;48.870;11.074;2023-09-19T04:02:47;96953.19;;;15.16;87.83
82458;BME280;72081;48.870;11.074;2023-09-19T04:05:13;96960.47;;;15.16;87.95
82458;BME280;72081;48.870;11.074;2023-09-19T04:07:38;96951.84;;;15.14;87.58
82458;BME280;72081;48.870;11.074;2023-09-19T04:10:04;96952.94;;;15.18;88.23
82458;BME280;72081;48.870;11.074;2023-09-19T04:12:29;96956.97;;;15.21;87.14
82458;BME280;72081;48.870;11.074;2023-09-19T04:14:55;96959.16;;;15.24;87.56
82458;BME280;72081;48.870;11.074;2023-09-19T04:17:20;96958.56;;;15.22;87.78
82458;BME280;72081;48.870;11.074;2023-09-19T04:19:45;96961.53;;;15.20;88.08
82458;BME280;72081;48.870;11.074;2023-09-19T04:22:11;96962.34;;;15.21;87.64
82458;BME280;72081;48.870;11.074;2023-09-19T04:24:37;96972.81;;;15.22;87.16
82458;BME280;72081;48.870;11.074;2023-09-19T04:27:04;96979.81;;;15.23;88.11
82458;BME280;72081;48.870;11.074;2023-09-19T04:29:29;96976.34;;;15.28;87.19
82458;BME280;72081;48.870;11.074;2023-09-19T04:31:55;96977.69;;;15.30;86.36
82458;BME280;72081;48.870;11.074;2023-09-19T04:34:21;96984.97;;;15.35;87.13
82458;BME280;72081;48.870;11.074;2023-09-19T04:36:47;96982.53;;;15.33;87.04
82458;BME280;72081;48.870;11.074;2023-09-19T04:39:12;96986.31;;;15.27;87.26
82458;BME280;72081;48.870;11.074;2023-09-19T04:41:38;96988.41;;;15.20;87.19
82458;BME280;72081;48.870;11.074;2023-09-19T04:44:06;96988.69;;;15.18;86.83
82458;BME280;72081;48.870;11.074;2023-09-19T04:46:32;96997.00;;;15.17;87.60
82458;BME280;72081;48.870;11.074;2023-09-19T04:48:57;97001.56;;;15.11;87.32
82458;BME280;72081;48.870;11.074;2023-09-19T04:51:23;97005.06;;;15.07;86.33
82458;BME280;72081;48.870;11.074;2023-09-19T04:53:48;96993.47;;;15.01;87.55
82458;BME280;72081;48.870;11.074;2023-09-19T04:56:14;96991.84;;;14.95;87.26
82458;BME280;72081;48.870;11.074;2023-09-19T04:58:40;96996.13;;;14.91;87.77
82458;BME280;72081;48.870;11.074;2023-09-19T05:01:05;96997.47;;;14.94;87.03
82458;BME280;72081;48.870;11.074;2023-09-19T05:03:30;96995.84;;;14.87;87.33
82458;BME280;72081;48.870;11.074;2023-09-19T05:05:56;96991.50;;;14.81;87.36
82458;BME280;72081;48.870;11.074;2023-09-19T05:08:21;97003.59;;;14.79;87.13
82458;BME280;72081;48.870;11.074;2023-09-19T05:10:47;96993.13;;;14.82;87.28
82458;BME280;72081;48.870;11.074;2023-09-19T05:13:13;96990.16;;;14.74;86.40
82458;BME280;72081;48.870;11.074;2023-09-19T05:15:39;96995.75;;;14.67;87.00
82458;BME280;72081;48.870;11.074;2023-09-19T05:18:04;96989.59;;;14.67;87.63
82458;BME280;72081;48.870;11.074;2023-09-19T05:20:31;97007.25;;;14.63;86.95
82458;BME280;72081;48.870;11.074;2023-09-19T05:23:36;97009.94;;;14.57;86.51
82458;BME280;72081;48.870;11.074;2023-09-19T05:26:02;97003.47;;;14.53;86.76
82458;BME280;72081;48.870;11.074;2023-09-19T05:28:29;97011.56;;;14.64;86.77
82458;BME280;72081;48.870;11.074;2023-09-19T05:30:54;97010.00;;;14.68;86.71
82458;BME280;72081;48.870;11.074;2023-09-19T05:33:20;97012.06;;;14.50;86.10
82458;BME280;72081;48.870;11.074;2023-09-19T05:35:47;97014.75;;;14.50;86.10
82458;BME280;72081;48.870;11.074;2023-09-19T05:38:13;97023.06;;;14.49;86.68
82458;BME280;72081;48.870;11.074;2023-09-19T05:40:39;97029.81;;;14.56;86.70
82458;BME280;72081;48.870;11.074;2023-09-19T05:43:07;97026.63;;;14.65;86.70
82458;BME280;72081;48.870;11.074;2023-09-19T05:45:33;97036.06;;;14.72;85.19
82458;BME280;72081;48.870;11.074;2023-09-19T05:48:07;97031.00;;;14.81;85.64
82458;BME280;72081;48.870;11.074;2023-09-19T05:50:33;97033.94;;;14.79;86.37
82458;BME280;72081;48.870;11.074;2023-09-19T05:52:59;97039.59;;;14.83;86.17
82458;BME280;72081;48.870;11.074;2023-09-19T05:55:24;97036.41;;;14.86;86.15
82458;BME280;72081;48.870;11.074;2023-09-19T05:57:53;97043.97;;;14.94;86.09
82458;BME280;72081;48.870;11.074;2023-09-19T06:00:19;97038.41;;;15.16;85.98
82458;BME280;72081;48.870;11.074;2023-09-19T06:02:58;97045.59;;;16.34;82.07
82458;BME280;72081;48.870;11.074;2023-09-19T06:05:25;97047.41;;;17.98;76.17
82458;BME280;72081;48.870;11.074;2023-09-19T06:07:57;97039.03;;;19.34;70.47
82458;BME280;72081;48.870;11.074;2023-09-19T06:10:26;97039.81;;;19.59;69.73
82458;BME280;72081;48.870;11.074;2023-09-19T06:12:53;97049.72;;;18.44;72.91
82458;BME280;72081;48.870;11.074;2023-09-19T06:15:20;97053.03;;;19.18;71.61
82458;BME280;72081;48.870;11.074;2023-09-19T06:17:53;97046.41;;;18.52;73.99
82458;BME280;72081;48.870;11.074;2023-09-19T06:20:20;97049.50;;;17.62;75.75
82458;BME280;72081;48.870;11.074;2023-09-19T06:22:47;97050.56;;;17.07;78.35
82458;BME280;72081;48.870;11.074;2023-09-19T06:25:14;97050.13;;;16.79;79.60
82458;BME280;72081;48.870;11.074;2023-09-19T06:27:46;97058.06;;;17.25;79.60
82458;BME280;72081;48.870;11.074;2023-09-19T06:30:12;97049.22;;;19.19;73.55
82458;BME280;72081;48.870;11.074;2023-09-19T06:32:39;97050.59;;;20.94;65.36
82458;BME280;72081;48.870;11.074;2023-09-19T06:35:05;97060.44;;;21.95;62.52
82458;BME280;72081;48.870;11.074;2023-09-19T06:37:36;97063.25;;;22.39;60.67
82458;BME280;72081;48.870;11.074;2023-09-19T06:40:04;97059.84;;;21.98;62.29
82458;BME280;72081;48.870;11.074;2023-09-19T06:42:30;97072.28;;;22.80;58.68
82458;BME280;72081;48.870;11.074;2023-09-19T06:44:56;97074.81;;;22.54;59.18
82458;BME280;72081;48.870;11.074;2023-09-19T06:47:21;97070.16;;;22.46;60.22
82458;BME280;72081;48.870;11.074;2023-09-19T06:49:47;97079.56;;;21.12;63.48
82458;BME280;72081;48.870;11.074;2023-09-19T06:52:13;97082.91;;;19.55;67.42
82458;BME280;72081;48.870;11.074;2023-09-19T06:54:38;97081.56;;;18.52;72.14
82458;BME280;72081;48.870;11.074;2023-09-19T06:57:05;97098.63;;;18.08;75.34
82458;BME280;72081;48.870;11.074;2023-09-19T06:59:31;97096.44;;;17.71;78.71
82458;BME280;72081;48.870;11.074;2023-09-19T07:01:57;97088.13;;;17.52;79.26
82458;BME280;72081;48.870;11.074;2023-09-19T07:04:24;97099.53;;;17.39;80.04
82458;BME280;72081;48.870;11.074;2023-09-19T07:06:50;97097.16;;;17.27;79.14
82458;BME280;72081;48.870;11.074;2023-09-19T07:09:15;97101.78;;;17.12;78.41
82458;BME280;72081;48.870;11.074;2023-09-19T07:11:41;97109.91;;;16.96;79.14
82458;BME280;72081;48.870;11.074;2023-09-19T07:14:07;97110.47;;;16.88;79.61
82458;BME280;72081;48.870;11.074;2023-09-19T07:16:33;97114.53;;;16.81;79.89
82458;BME280;72081;48.870;11.074;2023-09-19T07:18:58;97111.84;;;16.71;79.82
82458;BME280;72081;48.870;11.074;2023-09-19T07:21:24;97111.31;;;16.68;81.84
82458;BME280;72081;48.870;11.074;2023-09-19T07:23:49;97112.91;;;16.75;81.49
82458;BME280;72081;48.870;11.074;2023-09-19T07:26:15;97116.94;;;16.87;79.51
82458;BME280;72081;48.870;11.074;2023-09-19T07:28:41;97121.84;;;17.60;79.64
82458;BME280;72081;48.870;11.074;2023-09-19T07:31:06;97120.97;;;18.19;74.42
82458;BME280;72081;48.870;11.074;2023-09-19T07:33:35;97115.44;;;18.00;74.84
82458;BME280;72081;48.870;11.074;2023-09-19T07:36:01;97117.19;;;17.81;76.71
82458;BME280;72081;48.870;11.074;2023-09-19T07:38:26;97117.50;;;17.69;77.19
82458;BME280;72081;48.870;11.074;2023-09-19T07:40:52;97122.97;;;17.44;77.00
82458;BME280;72081;48.870;11.074;2023-09-19T07:43:17;97121.94;;;17.29;78.53
82458;BME280;72081;48.870;11.074;2023-09-19T07:45:43;97126.88;;;17.17;78.49
82458;BME280;72081;48.870;11.074;2023-09-19T07:48:08;97133.34;;;17.16;78.42
82458;BME280;72081;48.870;11.074;2023-09-19T07:50:39;97135.50;;;17.19;78.93
82458;BME280;72081;48.870;11.074;2023-09-19T07:53:05;97139.53;;;17.12;78.97
82458;BME280;72081;48.870;11.074;2023-09-19T07:55:31;97144.44;;;16.89;79.04
82458;BME280;72081;48.870;11.074;2023-09-19T07:57:58;97144.44;;;16.74;81.43
82458;BME280;72081;48.870;11.074;2023-09-19T08:00:24;97146.34;;;16.58;82.04
82458;BME280;72081;48.870;11.074;2023-09-19T08:02:49;97148.22;;;16.43;82.15
82458;BME280;72081;48.870;11.074;2023-09-19T08:05:14;97149.00;;;16.23;82.05
82458;BME280;72081;48.870;11.074;2023-09-19T08:07:42;97150.06;;;16.17;83.55
82458;BME280;72081;48.870;11.074;2023-09-19T08:12:24;97160.59;;;16.28;82.82
82458;BME280;72081;48.870;11.074;2023-09-19T08:14:49;97167.56;;;16.19;83.14
82458;BME280;72081;48.870;11.074;2023-09-19T08:17:15;97180.22;;;16.08;84.32
82458;BME280;72081;48.870;11.074;2023-09-19T08:19:40;97179.41;;;16.13;84.62
82458;BME280;72081;48.870;11.074;2023-09-19T08:22:07;97186.41;;;16.14;85.13
82458;BME280;72081;48.870;11.074;2023-09-19T08:24:35;97205.19;;;15.89;84.37
82458;BME280;72081;48.870;11.074;2023-09-19T08:27:00;97198.19;;;15.83;84.84
82458;BME280;72081;48.870;11.074;2023-09-19T08:29:27;97197.09;;;15.84;84.77
82458;BME280;72081;48.870;11.074;2023-09-19T08:31:58;97193.06;;;15.81;84.52
82458;BME280;72081;48.870;11.074;2023-09-19T08:34:24;97201.16;;;15.86;84.28
82458;BME280;72081;48.870;11.074;2023-09-19T08:36:51;97202.00;;;16.02;84.44
82458;BME280;72081;48.870;11.074;2023-09-19T08:39:17;97198.19;;;15.93;83.38
82458;BME280;72081;48.870;11.074;2023-09-19T08:41:44;97204.13;;;15.90;81.88
82458;BME280;72081;48.870;11.074;2023-09-19T08:44:09;97196.59;;;15.97;84.03
82458;BME280;72081;48.870;11.074;2023-09-19T08:46:35;97195.50;;;15.98;83.33
82458;BME280;72081;48.870;11.074;2023-09-19T08:49:04;97194.47;;;16.14;82.98
82458;BME280;72081;48.870;11.074;2023-09-19T08:51:41;97191.28;;;16.27;82.13
82458;BME280;72081;48.870;11.074;2023-09-19T08:54:15;97186.41;;;16.19;83.02
82458;BME280;72081;48.870;11.074;2023-09-19T08:56:46;97197.47;;;16.28;83.95
82458;BME280;72081;48.870;11.074;2023-09-19T08:59:12;97193.44;;;16.35;82.33
82458;BME280;72081;48.870;11.074;2023-09-19T09:01:38;97202.88;;;16.33;82.71
82458;BME280;72081;48.870;11.074;2023-09-19T09:04:08;97201.81;;;16.49;82.36
82458;BME280;72081;48.870;11.074;2023-09-19T09:06:34;97191.88;;;16.95;82.52
82458;BME280;72081;48.870;11.074;2023-09-19T09:09:01;97197.22;;;17.16;80.04
82458;BME280;72081;48.870;11.074;2023-09-19T09:11:28;97201.53;;;17.27;79.81
82458;BME280;72081;48.870;11.074;2023-09-19T09:13:54;97203.13;;;17.33;79.60
82458;BME280;72081;48.870;11.074;2023-09-19T09:16:19;97196.72;;;17.19;77.50
82458;BME280;72081;48.870;11.074;2023-09-19T09:18:49;97205.59;;;17.09;77.39
82458;BME280;72081;48.870;11.074;2023-09-19T09:21:19;97211.00;;;16.89;78.15
82458;BME280;72081;48.870;11.074;2023-09-19T09:23:47;97203.72;;;16.94;79.33
82458;BME280;72081;48.870;11.074;2023-09-19T09:26:12;97214.25;;;17.06;78.79
82458;BME280;72081;48.870;11.074;2023-09-19T09:28:44;97220.44;;;16.96;76.67
82458;BME280;72081;48.870;11.074;2023-09-19T09:31:22;97228.78;;;16.95;77.38
82458;BME280;72081;48.870;11.074;2023-09-19T09:33:55;97232.28;;;17.11;77.29
82458;BME280;72081;48.870;11.074;2023-09-19T09:36:39;97234.72;;;17.12;76.84
82458;BME280;72081;48.870;11.074;2023-09-19T09:39:07;97232.00;;;17.27;77.98
82458;BME280;72081;48.870;11.074;2023-09-19T09:41:43;97231.75;;;17.24;75.49
82458;BME280;72081;48.870;11.074;2023-09-19T09:44:14;97227.69;;;17.26;75.61
82458;BME280;72081;48.870;11.074;2023-09-19T09:46:43;97230.66;;;17.40;76.43
82458;BME280;72081;48.870;11.074;2023-09-19T09:49:22;97229.00;;;17.49;77.07
82458;BME280;72081;48.870;11.074;2023-09-19T09:52:03;97230.31;;;17.62;73.89
82458;BME280;72081;48.870;11.074;2023-09-19T09:55:03;97229.78;;;17.70;74.52
82458;BME280;72081;48.870;11.074;2023-09-19T09:57:33;97223.28;;;17.76;72.25
82458;BME280;72081;48.870;11.074;2023-09-19T10:00:00;97234.75;;;18.07;73.17
82458;BME280;72081;48.870;11.074;2023-09-19T10:02:42;97239.56;;;18.20;71.74
82458;BME280;72081;48.870;11.074;2023-09-19T10:05:17;97236.06;;;18.59;72.37
82458;BME280;72081;48.870;11.074;2023-09-19T10:07:49;97227.97;;;18.64;69.99
82458;BME280;72081;48.870;11.074;2023-09-19T10:10:33;97226.75;;;18.80;71.94
82458;BME280;72081;48.870;11.074;2023-09-19T10:13:10;97226.69;;;18.91;70.49
82458;BME280;72081;48.870;11.074;2023-09-19T10:15:43;97235.69;;;18.81;67.12
82458;BME280;72081;48.870;11.074;2023-09-19T10:18:19;97226.53;;;19.06;70.65
82458;BME280;72081;48.870;11.074;2023-09-19T10:20:45;97240.31;;;19.38;68.27
82458;BME280;72081;48.870;11.074;2023-09-19T10:23:12;97237.03;;;19.41;67.53
82458;BME280;72081;48.870;11.074;2023-09-19T10:25:40;97239.41;;;18.90;65.49
82458;BME280;72081;48.870;11.074;2023-09-19T10:28:07;97235.78;;;18.66;66.37
82458;BME280;72081;48.870;11.074;2023-09-19T10:30:38;97236.53;;;18.76;68.15
82458;BME280;72081;48.870;11.074;2023-09-19T10:33:14;97228.31;;;18.92;67.79
82458;BME280;72081;48.870;11.074;2023-09-19T10:35:42;97241.66;;;19.07;67.54
82458;BME280;72081;48.870;11.074;2023-09-19T10:38:11;97233.47;;;19.17;66.26
82458;BME280;72081;48.870;11.074;2023-09-19T10:40:38;97227.88;;;19.37;65.81
82458;BME280;72081;48.870;11.074;2023-09-19T10:43:12;97233.13;;;19.29;65.53
82458;BME280;72081;48.870;11.074;2023-09-19T10:45:45;97237.66;;;19.33;66.49
82458;BME280;72081;48.870;11.074;2023-09-19T10:48:14;97231.34;;;19.14;64.21
82458;BME280;72081;48.870;11.074;2023-09-19T10:50:46;97223.84;;;19.06;65.00
82458;BME280;72081;48.870;11.074;2023-09-19T10:53:14;97227.59;;;19.10;65.86
82458;BME280;72081;48.870;11.074;2023-09-19T10:55:49;97223.31;;;19.33;63.59
82458;BME280;72081;48.870;11.074;2023-09-19T10:58:25;97217.50;;;19.45;64.48
82458;BME280;72081;48.870;11.074;2023-09-19T11:01:13;97220.09;;;19.60;63.02
82458;BME280;72081;48.870;11.074;2023-09-19T11:03:41;97210.69;;;19.76;63.19
82458;BME280;72081;48.870;11.074;2023-09-19T11:06:15;97205.63;;;19.93;63.81
82458;BME280;72081;48.870;11.074;2023-09-19T11:09:01;97211.97;;;20.02;60.84
82458;BME280;72081;48.870;11.074;2023-09-19T11:11:51;97211.06;;;20.12;60.90
82458;BME280;72081;48.870;11.074;2023-09-19T11:25:41;97209.66;;;20.15;59.79
82458;BME280;72081;48.870;11.074;2023-09-19T11:30:45;97206.28;;;20.04;62.67
82458;BME280;72081;48.870;11.074;2023-09-19T11:33:27;97199.31;;;19.98;60.78
82458;BME280;72081;48.870;11.074;2023-09-19T11:46:53;97204.69;;;19.79;60.72
82458;BME280;72081;48.870;11.074;2023-09-19T11:49:23;97202.09;;;19.93;61.72
82458;BME280;72081;48.870;11.074;2023-09-19T11:51:51;97206.16;;;20.14;60.71
82458;BME280;72081;48.870;11.074;2023-09-19T11:54:17;97208.34;;;20.12;59.93
82458;BME280;72081;48.870;11.074;2023-09-19T11:56:44;97202.00;;;20.41;60.30
82458;BME280;72081;48.870;11.074;2023-09-19T11:59:11;97209.47;;;20.68;62.39
82458;BME280;72081;48.870;11.074;2023-09-19T12:01:38;97204.06;;;20.68;58.63
82458;BME280;72081;48.870;11.074;2023-09-19T12:04:11;97200.97;;;20.74;59.55
82458;BME280;72081;48.870;11.074;2023-09-19T12:06:36;97192.25;;;20.58;59.27
82458;BME280;72081;48.870;11.074;2023-09-19T12:09:04;97195.06;;;20.53;57.56
82458;BME280;72081;48.870;11.074;2023-09-19T12:11:32;97194.44;;;20.56;58.60
82458;BME280;72081;48.870;11.074;2023-09-19T12:14:01;97190.47;;;20.86;60.16
82458;BME280;72081;48.870;11.074;2023-09-19T12:16:27;97191.06;;;20.83;58.08
82458;BME280;72081;48.870;11.074;2023-09-19T12:18:55;97187.84;;;20.63;58.23
82458;BME280;72081;48.870;11.074;2023-09-19T12:21:27;97183.88;;;20.36;58.73
82458;BME280;72081;48.870;11.074;2023-09-19T12:23:59;97173.25;;;20.21;61.73
82458;BME280;72081;48.870;11.074;2023-09-19T12:26:27;97179.66;;;20.11;60.07
82458;BME280;72081;48.870;11.074;2023-09-19T12:28:54;97176.09;;;19.92;60.63
82458;BME280;72081;48.870;11.074;2023-09-19T12:31:20;97171.44;;;19.97;61.47
82458;BME280;72081;48.870;11.074;2023-09-19T12:33:46;97171.59;;;20.25;61.71
82458;BME280;72081;48.870;11.074;2023-09-19T12:36:22;97158.63;;;20.22;62.15
82458;BME280;72081;48.870;11.074;2023-09-19T12:38:57;97161.56;;;20.25;59.25
82458;BME280;72081;48.870;11.074;2023-09-19T12:41:25;97157.88;;;20.73;58.65
82458;BME280;72081;48.870;11.074;2023-09-19T12:43:55;97150.19;;;20.61;57.16
82458;BME280;72081;48.870;11.074;2023-09-19T12:46:23;97154.13;;;20.69;57.90
82458;BME280;72081;48.870;11.074;2023-09-19T12:49:19;97149.13;;;20.76;57.55
82458;BME280;72081;48.870;11.074;2023-09-19T12:51:47;97157.84;;;21.19;56.97
82458;BME280;72081;48.870;11.074;2023-09-19T12:54:14;97151.97;;;21.58;56.22
82458;BME280;72081;48.870;11.074;2023-09-19T12:56:43;97157.41;;;21.72;55.55
82458;BME280;72081;48.870;11.074;2023-09-19T12:59:14;97163.72;;;21.95;55.31
82458;BME280;72081;48.870;11.074;2023-09-19T13:01:41;97153.19;;;21.79;54.82
82458;BME280;72081;48.870;11.074;2023-09-19T13:06:52;97153.06;;;21.98;53.89
82458;BME280;72081;48.870;11.074;2023-09-19T13:09:19;97150.66;;;21.69;54.00
82458;BME280;72081;48.870;11.074;2023-09-19T13:11:49;97147.22;;;21.77;55.43
82458;BME280;72081;48.870;11.074;2023-09-19T13:17:01;97150.94;;;21.95;54.25
82458;BME280;72081;48.870;11.074;2023-09-19T13:19:50;97155.13;;;22.15;53.79
82458;BME280;72081;48.870;11.074;2023-09-19T13:22:44;97143.53;;;22.37;52.83
82458;BME280;72081;48.870;11.074;2023-09-19T13:25:15;97142.28;;;22.43;51.70
82458;BME280;72081;48.870;11.074;2023-09-19T13:27:44;97140.72;;;22.73;51.85
82458;BME280;72081;48.870;11.074;2023-09-19T13:30:10;97136.22;;;22.91;51.92
82458;BME280;72081;48.870;11.074;2023-09-19T13:32:36;97138.03;;;22.95;52.56
82458;BME280;72081;48.870;11.074;2023-09-19T13:35:05;97133.44;;;23.05;50.17
82458;BME280;72081;48.870;11.074;2023-09-19T13:37:33;97130.63;;;22.73;50.33
82458;BME280;72081;48.870;11.074;2023-09-19T13:40:01;97132.38;;;22.69;52.16
82458;BME280;72081;48.870;11.074;2023-09-19T13:42:26;97135.47;;;22.77;50.52